createdAt,value
2017-01-03T00:01:02.244Z,18.63
2017-01-03T00:02:11.328Z,18.62
2017-01-03T00:03:20.412Z,18.65
2017-01-03T00:04:29.915Z,18.66
2017-01-03T00:05:39.464Z,18.69
2017-01-03T00:06:49.013Z,18.7
2017-01-03T00:07:57.734Z,18.67
2017-01-03T00:09:06.811Z,18.75
2017-01-03T00:10:15.631Z,18.76
2017-01-03T00:11:24.698Z,18.8
2017-01-03T00:12:33.391Z,18.8
2017-01-03T00:13:42.084Z,18.87
2017-01-03T00:14:51.155Z,18.8
2017-01-03T00:16:00.671Z,18.81
2017-01-03T00:17:10.053Z,18.76
2017-01-03T00:18:19.522Z,18.9
2017-01-03T00:19:28.252Z,18.9
2017-01-03T00:20:37.318Z,18.85
2017-01-03T00:21:46.442Z,18.91
2017-01-03T00:22:55.796Z,18.9
2017-01-03T00:24:04.974Z,18.91
2017-01-03T00:25:14.441Z,18.94
2017-01-03T00:26:23.200Z,18.8
2017-01-03T00:27:32.733Z,18.9
2017-01-03T00:28:41.654Z,18.92
2017-01-03T00:29:50.773Z,18.94
2017-01-03T00:30:59.980Z,18.9
2017-01-03T00:32:09.140Z,18.91
2017-01-03T00:33:18.335Z,18.95
2017-01-03T00:34:27.854Z,19.02
2017-01-03T00:35:37.013Z,18.95
2017-01-03T00:36:46.191Z,18.95
2017-01-03T00:37:55.303Z,18.91
2017-01-03T00:39:04.779Z,18.88
2017-01-03T00:40:13.909Z,18.92
2017-01-03T00:41:23.003Z,18.95
2017-01-03T00:42:32.503Z,18.98
2017-01-03T00:43:41.318Z,19.07
2017-01-03T00:44:50.442Z,18.91
2017-01-03T00:45:59.694Z,18.99
2017-01-03T00:47:09.631Z,18.98
2017-01-03T00:48:18.779Z,18.99
2017-01-03T00:49:27.948Z,19
2017-01-03T00:50:37.475Z,19.02
2017-01-03T00:51:46.522Z,19.02
2017-01-03T00:52:55.608Z,18.99
2017-01-03T00:54:04.786Z,19.04
2017-01-03T00:55:13.870Z,18.98
2017-01-03T00:56:23.401Z,19
2017-01-03T00:57:32.472Z,18.98
2017-01-03T00:58:41.586Z,18.92
2017-01-03T00:59:50.658Z,19.07
2017-01-03T01:00:59.739Z,18.92
2017-01-03T01:02:08.828Z,19
2017-01-03T01:03:17.927Z,19.02
2017-01-03T01:04:26.614Z,19
2017-01-03T01:05:35.312Z,19.06
2017-01-03T01:06:44.399Z,19
2017-01-03T01:07:53.090Z,19.08
2017-01-03T01:09:02.905Z,18.98
2017-01-03T01:10:12.007Z,19.02
2017-01-03T01:11:21.086Z,18.99
2017-01-03T01:12:30.171Z,18.99
2017-01-03T01:13:39.287Z,19
2017-01-03T01:14:48.896Z,18.95
2017-01-03T01:15:57.636Z,19.02
2017-01-03T01:17:07.163Z,19.08
2017-01-03T01:18:16.652Z,19.04
2017-01-03T01:19:26.548Z,19.02
2017-01-03T01:20:35.580Z,18.99
2017-01-03T01:21:45.060Z,18.95
2017-01-03T01:22:54.519Z,19
2017-01-03T01:24:03.253Z,18.98
2017-01-03T01:25:12.331Z,19.02
2017-01-03T01:26:21.422Z,19.02
2017-01-03T01:27:30.892Z,18.94
2017-01-03T01:28:39.640Z,19.07
2017-01-03T01:29:48.709Z,19.04
2017-01-03T01:30:57.822Z,18.98
2017-01-03T01:32:07.286Z,19.08
2017-01-03T01:33:15.974Z,19.02
2017-01-03T01:34:24.658Z,18.99
2017-01-03T01:35:33.733Z,19.02
2017-01-03T01:36:42.827Z,18.98
2017-01-03T01:37:52.282Z,19
2017-01-03T01:39:01.011Z,19.04
2017-01-03T01:40:09.697Z,19.07
2017-01-03T01:41:18.761Z,19
2017-01-03T01:42:27.501Z,19.07
2017-01-03T01:43:37.340Z,18.99
2017-01-03T01:44:46.810Z,19.07
2017-01-03T01:45:55.880Z,19.06
2017-01-03T01:47:04.986Z,19.07
2017-01-03T01:48:13.679Z,19.07
2017-01-03T01:49:23.081Z,19.07
2017-01-03T01:50:32.164Z,19.06
2017-01-03T01:51:41.267Z,18.99
2017-01-03T01:52:50.336Z,19.02
2017-01-03T01:53:59.427Z,18.95
2017-01-03T01:55:08.606Z,19
2017-01-03T01:56:18.098Z,19.06
2017-01-03T01:57:27.217Z,18.99
2017-01-03T01:58:36.689Z,18.98
2017-01-03T01:59:45.827Z,19.02
2017-01-03T02:00:55.990Z,18.99
2017-01-03T02:02:05.492Z,18.99
2017-01-03T02:03:14.970Z,19.02
2017-01-03T02:04:24.469Z,19.02
2017-01-03T02:05:34.338Z,19.08
2017-01-03T02:06:44.189Z,19
2017-01-03T02:07:53.277Z,18.98
2017-01-03T02:09:02.353Z,19
2017-01-03T02:10:11.849Z,18.95
2017-01-03T02:11:21.314Z,19.07
2017-01-03T02:12:30.746Z,19
2017-01-03T02:13:40.224Z,19.04
2017-01-03T02:14:48.920Z,18.99
2017-01-03T02:15:57.613Z,19.07
2017-01-03T02:17:07.116Z,19.06
2017-01-03T02:18:16.502Z,18.99
2017-01-03T02:19:25.635Z,18.98
2017-01-03T02:20:34.740Z,19.07
2017-01-03T02:21:43.440Z,19.06
2017-01-03T02:22:52.151Z,19.08
2017-01-03T02:24:01.307Z,18.99
2017-01-03T02:25:10.787Z,19.08
2017-01-03T02:26:19.523Z,19.02
2017-01-03T02:27:29.014Z,19.02
2017-01-03T02:28:37.720Z,19.08
2017-01-03T02:29:46.437Z,18.99
2017-01-03T02:30:55.531Z,19.06
2017-01-03T02:32:05.418Z,18.99
2017-01-03T02:33:14.917Z,19.06
2017-01-03T02:34:23.656Z,19.07
2017-01-03T02:35:32.740Z,19.02
2017-01-03T02:36:41.814Z,19
2017-01-03T02:37:50.497Z,19
2017-01-03T02:38:59.574Z,19.08
2017-01-03T02:40:08.646Z,19.06
2017-01-03T02:41:18.217Z,19
2017-01-03T02:42:27.280Z,19.06
2017-01-03T02:43:36.374Z,19.08
2017-01-03T02:44:45.477Z,18.99
2017-01-03T02:45:54.962Z,19.08
2017-01-03T02:47:04.409Z,18.99
2017-01-03T02:48:13.112Z,19.02
2017-01-03T02:49:21.810Z,19.08
2017-01-03T02:50:30.924Z,19.04
2017-01-03T02:51:40.006Z,18.95
2017-01-03T02:52:49.098Z,19.06
2017-01-03T02:53:58.189Z,19.06
2017-01-03T02:55:06.877Z,19.11
2017-01-03T02:56:15.579Z,19.04
2017-01-03T02:57:25.049Z,19.1
2017-01-03T02:58:34.287Z,19.1
2017-01-03T02:59:42.989Z,18.99
2017-01-03T03:00:51.689Z,19.02
2017-01-03T03:02:00.776Z,19.08
2017-01-03T03:03:09.484Z,19.1
2017-01-03T03:04:18.593Z,19.1
2017-01-03T03:05:27.684Z,19.02
2017-01-03T03:06:36.797Z,19
2017-01-03T03:07:46.312Z,19.08
2017-01-03T03:08:55.019Z,19.08
2017-01-03T03:10:05.242Z,19.11
2017-01-03T03:11:15.101Z,19.1
2017-01-03T03:12:24.201Z,19.02
2017-01-03T03:13:32.893Z,19.04
2017-01-03T03:14:41.971Z,19.04
2017-01-03T03:15:51.046Z,19.07
2017-01-03T03:17:00.158Z,19.07
2017-01-03T03:18:08.879Z,19.1
2017-01-03T03:19:18.017Z,19.02
2017-01-03T03:20:27.115Z,19.02
2017-01-03T03:21:36.745Z,19.06
2017-01-03T03:22:45.837Z,19.04
2017-01-03T03:23:54.915Z,19.08
2017-01-03T03:25:04.800Z,19.08
2017-01-03T03:26:13.873Z,19.06
2017-01-03T03:27:23.122Z,19.07
2017-01-03T03:28:31.819Z,19.06
2017-01-03T03:29:40.912Z,19.07
2017-01-03T03:30:50.382Z,19.1
2017-01-03T03:31:59.846Z,19.02
2017-01-03T03:33:08.539Z,19.04
2017-01-03T03:34:17.650Z,19.1
2017-01-03T03:35:26.359Z,19.06
2017-01-03T03:36:35.085Z,19.06
2017-01-03T03:37:44.170Z,19.06
2017-01-03T03:38:54.025Z,19.11
2017-01-03T03:40:02.736Z,19.07
2017-01-03T03:41:11.420Z,19.06
2017-01-03T03:42:20.499Z,19.04
2017-01-03T03:43:30.003Z,19.07
2017-01-03T03:44:38.797Z,19.13
2017-01-03T03:45:48.285Z,19
2017-01-03T03:46:57.006Z,19.06
2017-01-03T03:48:06.118Z,19.07
2017-01-03T03:49:15.601Z,19.07
2017-01-03T03:50:24.978Z,19.11
2017-01-03T03:51:33.734Z,19.1
2017-01-03T03:52:42.493Z,19.08
2017-01-03T03:53:51.267Z,19.06
2017-01-03T03:55:01.044Z,19.07
2017-01-03T03:56:10.180Z,19.02
2017-01-03T03:57:19.668Z,18.99
2017-01-03T03:58:28.802Z,19
2017-01-03T03:59:38.312Z,19.02
2017-01-03T04:00:48.050Z,19.11
2017-01-03T04:01:57.922Z,18.99
2017-01-03T04:03:07.091Z,19.06
2017-01-03T04:04:17.461Z,19.04
2017-01-03T04:05:27.021Z,19.11
2017-01-03T04:06:35.717Z,19.11
2017-01-03T04:07:44.578Z,19.02
2017-01-03T04:08:53.672Z,19.02
2017-01-03T04:10:03.166Z,19.02
2017-01-03T04:11:12.288Z,19.1
2017-01-03T04:12:21.383Z,19.08
2017-01-03T04:13:30.278Z,19.1
2017-01-03T04:14:39.750Z,19.04
2017-01-03T04:15:49.230Z,19
2017-01-03T04:16:58.321Z,19.07
2017-01-03T04:18:07.844Z,19.1
2017-01-03T04:19:17.918Z,19.08
2017-01-03T04:20:26.687Z,19.06
2017-01-03T04:21:35.806Z,19.04
2017-01-03T04:22:44.526Z,19.08
2017-01-03T04:23:53.611Z,19.07
2017-01-03T04:25:03.415Z,19
2017-01-03T04:26:12.871Z,19
2017-01-03T04:27:21.659Z,19.06
2017-01-03T04:28:30.385Z,18.95
2017-01-03T04:29:39.140Z,19.06
2017-01-03T04:30:48.255Z,19.07
2017-01-03T04:31:57.351Z,19.02
2017-01-03T04:33:07.255Z,18.98
2017-01-03T04:34:16.359Z,19
2017-01-03T04:35:25.464Z,19
2017-01-03T04:36:34.527Z,19.1
2017-01-03T04:37:43.393Z,19.08
2017-01-03T04:38:52.574Z,19.02
2017-01-03T04:40:01.689Z,19.04
2017-01-03T04:41:10.435Z,19.04
2017-01-03T04:42:19.205Z,19.1
2017-01-03T04:43:28.285Z,19.04
2017-01-03T04:44:36.980Z,18.99
2017-01-03T04:45:46.068Z,19.02
2017-01-03T04:46:54.789Z,18.99
2017-01-03T04:48:03.909Z,19
2017-01-03T04:49:12.641Z,19
2017-01-03T04:50:21.354Z,19.06
2017-01-03T04:51:30.036Z,19
2017-01-03T04:52:39.517Z,18.95
2017-01-03T04:53:48.370Z,18.99
2017-01-03T04:54:57.459Z,18.99
2017-01-03T04:56:06.600Z,19.04
2017-01-03T04:57:15.690Z,19
2017-01-03T04:58:25.565Z,19
2017-01-03T04:59:35.376Z,19
2017-01-03T05:00:44.460Z,18.99
2017-01-03T05:01:53.194Z,18.99
2017-01-03T05:03:02.281Z,18.98
2017-01-03T05:04:11.398Z,19
2017-01-03T05:05:21.049Z,19
2017-01-03T05:06:30.165Z,18.94
2017-01-03T05:07:38.878Z,19.02
2017-01-03T05:08:47.960Z,19.02
2017-01-03T05:09:56.649Z,19.06
2017-01-03T05:11:05.529Z,19
2017-01-03T05:12:14.252Z,18.99
2017-01-03T05:13:23.345Z,19.04
2017-01-03T05:14:32.423Z,19
2017-01-03T05:15:41.896Z,19
2017-01-03T05:16:51.176Z,19.02
2017-01-03T05:17:59.935Z,19.04
2017-01-03T05:19:08.618Z,19.02
2017-01-03T05:20:17.691Z,19.04
2017-01-03T05:21:27.175Z,19
2017-01-03T05:22:36.816Z,18.99
2017-01-03T05:23:45.520Z,18.99
2017-01-03T05:24:54.599Z,18.98
2017-01-03T05:26:03.673Z,19.02
2017-01-03T05:27:13.165Z,18.99
2017-01-03T05:28:21.867Z,19.02
2017-01-03T05:29:30.945Z,19.08
2017-01-03T05:30:39.734Z,18.98
2017-01-03T05:31:48.421Z,19
2017-01-03T05:32:57.506Z,19
2017-01-03T05:34:06.377Z,18.99
2017-01-03T05:35:15.851Z,19.02
2017-01-03T05:36:24.956Z,19.11
2017-01-03T05:37:33.751Z,19.1
2017-01-03T05:38:42.828Z,19.13
2017-01-03T05:39:52.731Z,19.21
2017-01-03T05:41:02.226Z,19.28
2017-01-03T05:42:11.384Z,19.23
2017-01-03T05:43:20.377Z,19.4
2017-01-03T05:44:30.065Z,19.36
2017-01-03T05:45:39.599Z,19.43
2017-01-03T05:46:48.317Z,19.48
2017-01-03T05:47:57.821Z,19.61
2017-01-03T05:49:06.924Z,19.71
2017-01-03T05:50:16.069Z,19.65
2017-01-03T05:51:24.825Z,19.76
2017-01-03T05:52:33.660Z,19.8
2017-01-03T05:53:42.427Z,19.8
2017-01-03T05:54:52.573Z,19.87
2017-01-03T05:56:01.827Z,19.91
2017-01-03T05:57:11.288Z,19.98
2017-01-03T05:58:20.017Z,20.01
2017-01-03T05:59:28.759Z,20.08
2017-01-03T06:00:38.635Z,20.18
2017-01-03T06:01:47.715Z,20.18
2017-01-03T06:02:56.875Z,20.28
2017-01-03T06:04:06.304Z,20.31
2017-01-03T06:05:15.613Z,20.35
2017-01-03T06:06:25.610Z,20.39
2017-01-03T06:07:35.646Z,20.52
2017-01-03T06:08:44.624Z,20.39
2017-01-03T06:09:54.608Z,20.55
2017-01-03T06:11:04.159Z,20.55
2017-01-03T06:12:13.008Z,20.67
2017-01-03T06:13:22.151Z,20.74
2017-01-03T06:14:31.935Z,20.64
2017-01-03T06:15:41.092Z,20.69
2017-01-03T06:16:49.797Z,20.85
2017-01-03T06:17:58.944Z,20.76
2017-01-03T06:19:08.466Z,20.85
2017-01-03T06:20:17.650Z,20.95
2017-01-03T06:21:26.913Z,20.94
2017-01-03T06:22:36.099Z,20.99
2017-01-03T06:23:45.259Z,21.03
2017-01-03T06:24:53.979Z,21.01
2017-01-03T06:26:03.530Z,21.13
2017-01-03T06:27:12.241Z,21.14
2017-01-03T06:28:22.153Z,21.25
2017-01-03T06:29:31.039Z,21.24
2017-01-03T06:30:40.163Z,21.29
2017-01-03T06:31:49.196Z,21.32
2017-01-03T06:32:57.920Z,21.38
2017-01-03T06:34:07.010Z,21.32
2017-01-03T06:35:16.947Z,21.42
2017-01-03T06:36:26.122Z,21.4
2017-01-03T06:37:35.428Z,21.56
2017-01-03T06:38:45.129Z,21.53
2017-01-03T06:39:54.260Z,21.61
2017-01-03T06:41:02.988Z,21.65
2017-01-03T06:42:12.137Z,21.64
2017-01-03T06:43:21.595Z,21.71
2017-01-03T06:44:31.593Z,21.69
2017-01-03T06:45:40.758Z,21.69
2017-01-03T06:46:49.962Z,21.74
2017-01-03T06:47:59.339Z,21.77
2017-01-03T06:49:08.602Z,21.8
2017-01-03T06:50:17.786Z,21.77
2017-01-03T06:51:27.293Z,21.74
2017-01-03T06:52:36.555Z,21.84
2017-01-03T06:53:45.417Z,21.68
2017-01-03T06:54:54.924Z,21.64
2017-01-03T06:56:03.646Z,21.61
2017-01-03T06:57:12.424Z,21.52
2017-01-03T06:58:21.634Z,21.49
2017-01-03T06:59:30.728Z,21.4
2017-01-03T07:00:40.092Z,21.42
2017-01-03T07:01:49.278Z,21.43
2017-01-03T07:02:58.401Z,21.35
2017-01-03T07:04:07.976Z,21.27
2017-01-03T07:05:17.896Z,21.24
2017-01-03T07:06:27.012Z,21.28
2017-01-03T07:07:36.579Z,21.28
2017-01-03T07:08:45.839Z,21.21
2017-01-03T07:09:55.095Z,21.25
2017-01-03T07:11:05.031Z,21.24
2017-01-03T07:12:14.268Z,21.16
2017-01-03T07:13:25.063Z,21.16
2017-01-03T07:14:34.617Z,21.14
2017-01-03T07:15:44.369Z,21.1
2017-01-03T07:16:53.573Z,21.12
2017-01-03T07:18:03.141Z,21.17
2017-01-03T07:19:12.506Z,21.1
2017-01-03T07:20:23.454Z,21.22
2017-01-03T07:21:34.141Z,21.25
2017-01-03T07:22:43.253Z,21.1
2017-01-03T07:23:52.425Z,20.69
2017-01-03T07:25:01.108Z,19.99
2017-01-03T07:26:10.298Z,19.28
2017-01-03T07:27:19.453Z,18.8
2017-01-03T07:28:28.993Z,18.2
2017-01-03T07:29:37.835Z,17.71
2017-01-03T07:30:46.600Z,17.23
2017-01-03T07:31:55.797Z,16.86
2017-01-03T07:33:04.893Z,16.45
2017-01-03T07:34:14.394Z,16.08
2017-01-03T07:35:23.860Z,15.78
2017-01-03T07:36:33.743Z,15.41
2017-01-03T07:37:43.642Z,15.17
2017-01-03T07:38:53.138Z,14.96
2017-01-03T07:40:02.622Z,14.86
2017-01-03T07:41:12.056Z,14.72
2017-01-03T07:42:21.198Z,14.46
2017-01-03T07:43:29.896Z,14.29
2017-01-03T07:44:38.993Z,14.28
2017-01-03T07:45:47.674Z,14.09
2017-01-03T07:46:57.476Z,13.87
2017-01-03T07:48:06.551Z,13.75
2017-01-03T07:49:15.243Z,13.63
2017-01-03T07:50:25.830Z,13.44
2017-01-03T07:51:34.897Z,13.29
2017-01-03T07:52:44.519Z,13.12
2017-01-03T07:53:53.624Z,13.04
2017-01-03T07:55:03.505Z,13
2017-01-03T07:56:12.615Z,12.89
2017-01-03T07:57:21.327Z,12.79
2017-01-03T07:58:30.216Z,12.86
2017-01-03T07:59:40.101Z,12.7
2017-01-03T08:00:49.186Z,12.7
2017-01-03T08:01:59.068Z,12.67
2017-01-03T08:03:08.168Z,12.68
2017-01-03T08:04:17.246Z,12.6
2017-01-03T08:05:26.352Z,12.62
2017-01-03T08:06:35.830Z,12.65
2017-01-03T08:07:44.913Z,12.64
2017-01-03T08:08:54.011Z,12.5
2017-01-03T08:10:03.055Z,12.53
2017-01-03T08:11:12.144Z,12.56
2017-01-03T08:12:22.049Z,12.52
2017-01-03T08:13:31.516Z,12.32
2017-01-03T08:14:41.427Z,12.42
2017-01-03T08:15:50.511Z,12.38
2017-01-03T08:16:59.590Z,12.37
2017-01-03T08:18:08.704Z,12.38
2017-01-03T08:19:18.201Z,12.35
2017-01-03T08:20:28.072Z,12.41
2017-01-03T08:21:37.156Z,12.38
2017-01-03T08:22:45.872Z,12.35
2017-01-03T08:23:54.561Z,12.37
2017-01-03T08:25:04.454Z,12.37
2017-01-03T08:26:13.528Z,12.35
2017-01-03T08:27:22.632Z,12.41
2017-01-03T08:28:31.326Z,12.39
2017-01-03T08:29:40.397Z,12.38
2017-01-03T08:30:49.081Z,12.52
2017-01-03T08:31:58.171Z,12.49
2017-01-03T08:33:07.018Z,12.56
2017-01-03T08:34:16.518Z,12.54
2017-01-03T08:35:26.374Z,12.56
2017-01-03T08:36:35.853Z,12.46
2017-01-03T08:37:45.312Z,12.42
2017-01-03T08:38:55.281Z,12.41
2017-01-03T08:40:04.366Z,12.32
2017-01-03T08:41:13.521Z,12.34
2017-01-03T08:42:22.610Z,12.24
2017-01-03T08:43:32.076Z,12.32
2017-01-03T08:44:40.764Z,12.24
2017-01-03T08:45:50.244Z,12.21
2017-01-03T08:46:59.332Z,12.2
2017-01-03T08:48:08.832Z,12.16
2017-01-03T08:49:18.314Z,12.14
2017-01-03T08:50:28.184Z,12.28
2017-01-03T08:51:37.691Z,12.12
2017-01-03T08:52:46.776Z,11.96
2017-01-03T08:53:55.855Z,11.91
2017-01-03T08:55:04.538Z,11.86
2017-01-03T08:56:13.949Z,11.91
2017-01-03T08:57:22.640Z,11.96
2017-01-03T08:58:31.349Z,11.88
2017-01-03T08:59:41.248Z,12.02
2017-01-03T09:00:49.933Z,12.01
2017-01-03T09:01:59.019Z,12.04
2017-01-03T09:03:08.117Z,11.91
2017-01-03T09:04:17.198Z,12.12
2017-01-03T09:05:25.880Z,12.07
2017-01-03T09:06:35.346Z,12.14
2017-01-03T09:07:44.763Z,12.19
2017-01-03T09:08:53.844Z,12.21
2017-01-03T09:10:02.930Z,12.32
2017-01-03T09:11:12.393Z,12.32
2017-01-03T09:12:21.882Z,12.35
2017-01-03T09:13:31.708Z,12.41
2017-01-03T09:14:40.395Z,12.38
2017-01-03T09:15:49.077Z,12.46
2017-01-03T09:16:58.147Z,12.38
2017-01-03T09:18:06.842Z,12.54
2017-01-03T09:19:16.281Z,12.59
2017-01-03T09:20:25.999Z,12.6
2017-01-03T09:21:35.484Z,12.68
2017-01-03T09:22:44.192Z,12.7
2017-01-03T09:23:52.894Z,12.68
2017-01-03T09:25:01.736Z,12.77
2017-01-03T09:26:11.229Z,12.77
2017-01-03T09:27:19.919Z,12.75
2017-01-03T09:28:28.618Z,12.74
2017-01-03T09:29:38.089Z,12.75
2017-01-03T09:30:46.795Z,12.7
2017-01-03T09:31:56.262Z,12.71
2017-01-03T09:33:06.170Z,12.68
2017-01-03T09:34:15.268Z,12.74
2017-01-03T09:35:23.961Z,12.68
2017-01-03T09:36:33.399Z,12.67
2017-01-03T09:37:42.486Z,12.56
2017-01-03T09:38:52.018Z,12.7
2017-01-03T09:40:01.518Z,12.74
2017-01-03T09:41:10.593Z,12.75
2017-01-03T09:42:19.822Z,12.82
2017-01-03T09:43:28.902Z,12.74
2017-01-03T09:44:37.592Z,12.65
2017-01-03T09:45:46.691Z,12.75
2017-01-03T09:46:55.390Z,12.74
2017-01-03T09:48:05.400Z,12.72
2017-01-03T09:49:14.100Z,12.77
2017-01-03T09:50:23.577Z,12.7
2017-01-03T09:51:32.640Z,12.71
2017-01-03T09:52:42.111Z,12.75
2017-01-03T09:53:51.574Z,12.75
2017-01-03T09:55:01.046Z,12.77
2017-01-03T09:56:10.164Z,12.9
2017-01-03T09:57:18.850Z,12.85
2017-01-03T09:58:27.548Z,12.86
2017-01-03T09:59:37.570Z,12.95
2017-01-03T10:00:46.655Z,12.96
2017-01-03T10:01:55.726Z,12.96
2017-01-03T10:03:04.425Z,13.01
2017-01-03T10:04:13.128Z,12.97
2017-01-03T10:05:22.506Z,12.93
2017-01-03T10:06:31.592Z,13.07
2017-01-03T10:07:41.492Z,13.03
2017-01-03T10:08:50.177Z,13.05
2017-01-03T10:09:59.265Z,12.96
2017-01-03T10:11:09.128Z,13.05
2017-01-03T10:12:18.644Z,13.03
2017-01-03T10:13:27.719Z,12.96
2017-01-03T10:14:37.598Z,13.01
2017-01-03T10:15:46.279Z,12.92
2017-01-03T10:16:55.465Z,12.97
2017-01-03T10:18:04.155Z,12.87
2017-01-03T10:19:13.245Z,13.03
2017-01-03T10:20:22.720Z,13.05
2017-01-03T10:21:31.797Z,12.96
2017-01-03T10:22:40.949Z,13.05
2017-01-03T10:23:50.038Z,13.15
2017-01-03T10:24:59.126Z,13.15
2017-01-03T10:26:07.828Z,13.17
2017-01-03T10:27:16.522Z,13.3
2017-01-03T10:28:25.601Z,13.14
2017-01-03T10:29:34.297Z,13.15
2017-01-03T10:30:43.802Z,13.2
2017-01-03T10:31:52.885Z,13.08
2017-01-03T10:33:01.968Z,13.04
2017-01-03T10:34:10.811Z,13.04
2017-01-03T10:35:19.888Z,13.05
2017-01-03T10:36:29.353Z,12.95
2017-01-03T10:37:39.206Z,12.97
2017-01-03T10:38:48.284Z,12.92
2017-01-03T10:39:57.323Z,12.95
2017-01-03T10:41:06.796Z,12.95
2017-01-03T10:42:15.893Z,13
2017-01-03T10:43:24.968Z,12.96
2017-01-03T10:44:34.460Z,12.97
2017-01-03T10:45:44.312Z,13.1
2017-01-03T10:46:53.393Z,12.97
2017-01-03T10:48:02.488Z,12.97
2017-01-03T10:49:11.565Z,13.05
2017-01-03T10:50:20.660Z,13.11
2017-01-03T10:51:29.912Z,13.07
2017-01-03T10:52:39.411Z,13.04
2017-01-03T10:53:48.517Z,13.05
2017-01-03T10:54:57.632Z,13.07
2017-01-03T10:56:07.148Z,13.1
2017-01-03T10:57:16.028Z,13.23
2017-01-03T10:58:25.124Z,13.12
2017-01-03T10:59:33.820Z,13.2
2017-01-03T11:00:42.915Z,13.25
2017-01-03T11:01:51.984Z,13.25
2017-01-03T11:03:01.408Z,13.32
2017-01-03T11:04:10.475Z,13.23
2017-01-03T11:05:19.535Z,13.32
2017-01-03T11:06:28.251Z,13.28
2017-01-03T11:07:36.940Z,13.29
2017-01-03T11:08:45.927Z,13.39
2017-01-03T11:09:54.623Z,13.28
2017-01-03T11:11:03.316Z,13.36
2017-01-03T11:12:12.406Z,13.39
2017-01-03T11:13:21.882Z,13.39
2017-01-03T11:14:31.115Z,13.39
2017-01-03T11:15:40.209Z,13.41
2017-01-03T11:16:49.306Z,13.41
2017-01-03T11:17:58.003Z,13.33
2017-01-03T11:19:07.475Z,13.45
2017-01-03T11:20:16.706Z,13.42
2017-01-03T11:21:25.797Z,13.41
2017-01-03T11:22:34.488Z,13.38
2017-01-03T11:23:43.569Z,13.39
2017-01-03T11:24:53.074Z,13.55
2017-01-03T11:26:02.850Z,13.44
2017-01-03T11:27:12.314Z,13.54
2017-01-03T11:28:21.775Z,13.55
2017-01-03T11:29:30.874Z,13.64
2017-01-03T11:30:39.966Z,13.6
2017-01-03T11:31:49.469Z,13.57
2017-01-03T11:32:58.545Z,13.48
2017-01-03T11:34:07.653Z,13.57
2017-01-03T11:35:16.331Z,13.6
2017-01-03T11:36:25.432Z,13.59
2017-01-03T11:37:35.387Z,13.57
2017-01-03T11:38:44.083Z,13.57
2017-01-03T11:39:53.183Z,13.59
2017-01-03T11:41:02.685Z,13.54
2017-01-03T11:42:11.781Z,13.55
2017-01-03T11:43:20.963Z,13.66
2017-01-03T11:44:30.434Z,13.64
2017-01-03T11:45:40.302Z,13.64
2017-01-03T11:46:49.427Z,13.55
2017-01-03T11:47:58.178Z,13.54
2017-01-03T11:49:07.888Z,13.48
2017-01-03T11:50:17.437Z,13.59
2017-01-03T11:51:26.948Z,13.44
2017-01-03T11:52:35.656Z,13.59
2017-01-03T11:53:45.136Z,13.57
2017-01-03T11:54:54.204Z,13.62
2017-01-03T11:56:03.319Z,13.59
2017-01-03T11:57:12.391Z,13.62
2017-01-03T11:58:21.095Z,13.64
2017-01-03T11:59:30.963Z,13.75
2017-01-03T12:00:40.452Z,13.73
2017-01-03T12:01:49.547Z,13.64
2017-01-03T12:02:59.066Z,13.6
2017-01-03T12:04:08.555Z,13.63
2017-01-03T12:05:17.252Z,13.67
2017-01-03T12:06:25.941Z,13.64
2017-01-03T12:07:35.037Z,13.57
2017-01-03T12:08:43.731Z,13.57
2017-01-03T12:09:52.417Z,13.55
2017-01-03T12:11:01.490Z,13.48
2017-01-03T12:12:10.908Z,13.46
2017-01-03T12:13:19.994Z,13.51
2017-01-03T12:14:29.085Z,13.45
2017-01-03T12:15:38.188Z,13.45
2017-01-03T12:16:47.283Z,13.52
2017-01-03T12:17:57.159Z,13.52
2017-01-03T12:19:06.644Z,13.51
2017-01-03T12:20:16.122Z,13.46
2017-01-03T12:21:25.206Z,13.52
2017-01-03T12:22:34.294Z,13.54
2017-01-03T12:23:43.489Z,13.44
2017-01-03T12:24:52.955Z,13.48
2017-01-03T12:26:02.435Z,13.38
2017-01-03T12:27:11.520Z,13.44
2017-01-03T12:28:20.237Z,13.36
2017-01-03T12:29:29.693Z,13.33
2017-01-03T12:30:38.771Z,13.38
2017-01-03T12:31:48.229Z,13.26
2017-01-03T12:32:56.921Z,13.29
2017-01-03T12:34:05.617Z,13.32
2017-01-03T12:35:15.222Z,13.26
2017-01-03T12:36:24.335Z,13.33
2017-01-03T12:37:33.026Z,13.28
2017-01-03T12:38:42.113Z,13.3
2017-01-03T12:39:51.286Z,13.3
2017-01-03T12:41:00.136Z,13.28
2017-01-03T12:42:09.229Z,13.3
2017-01-03T12:43:18.446Z,13.45
2017-01-03T12:44:27.930Z,13.41
2017-01-03T12:45:36.626Z,13.46
2017-01-03T12:46:45.879Z,13.51
2017-01-03T12:47:54.577Z,13.51
2017-01-03T12:49:03.693Z,13.55
2017-01-03T12:50:12.438Z,13.57
2017-01-03T12:51:22.032Z,13.46
2017-01-03T12:52:31.615Z,13.55
2017-01-03T12:53:41.079Z,13.42
2017-01-03T12:54:50.191Z,13.46
2017-01-03T12:55:59.293Z,13.42
2017-01-03T12:57:08.004Z,13.48
2017-01-03T12:58:17.204Z,13.59
2017-01-03T12:59:25.915Z,13.54
2017-01-03T13:00:35.411Z,13.54
2017-01-03T13:01:44.596Z,13.63
2017-01-03T13:02:54.089Z,13.46
2017-01-03T13:04:02.788Z,13.63
2017-01-03T13:05:11.884Z,13.66
2017-01-03T13:06:20.959Z,13.54
2017-01-03T13:07:29.641Z,13.57
2017-01-03T13:08:38.335Z,13.45
2017-01-03T13:09:47.038Z,13.39
2017-01-03T13:10:56.140Z,13.32
2017-01-03T13:12:04.831Z,13.38
2017-01-03T13:13:13.902Z,13.23
2017-01-03T13:14:22.625Z,13.22
2017-01-03T13:15:31.825Z,13.23
2017-01-03T13:16:40.906Z,13.26
2017-01-03T13:17:50.393Z,13.25
2017-01-03T13:18:59.491Z,13.25
2017-01-03T13:20:09.353Z,13.25
2017-01-03T13:21:19.135Z,13.44
2017-01-03T13:22:28.216Z,13.44
2017-01-03T13:23:37.303Z,13.46
2017-01-03T13:24:46.980Z,13.55
2017-01-03T13:25:56.456Z,13.66
2017-01-03T13:27:05.892Z,13.71
2017-01-03T13:28:15.514Z,13.79
2017-01-03T13:29:24.677Z,13.71
2017-01-03T13:30:33.380Z,13.71
2017-01-03T13:31:42.515Z,13.73
2017-01-03T13:32:51.995Z,13.77
2017-01-03T13:34:01.499Z,13.71
2017-01-03T13:35:10.697Z,13.75
2017-01-03T13:36:19.785Z,13.62
2017-01-03T13:37:28.482Z,13.59
2017-01-03T13:38:37.521Z,13.55
2017-01-03T13:39:47.000Z,13.54
2017-01-03T13:40:55.710Z,13.48
2017-01-03T13:42:05.182Z,13.51
2017-01-03T13:43:13.880Z,13.44
2017-01-03T13:44:24.124Z,13.49
2017-01-03T13:45:33.279Z,13.38
2017-01-03T13:46:41.969Z,13.28
2017-01-03T13:47:51.057Z,13.33
2017-01-03T13:49:00.142Z,13.33
2017-01-03T13:50:09.789Z,13.33
2017-01-03T13:51:18.487Z,13.26
2017-01-03T13:52:27.597Z,13.14
2017-01-03T13:53:36.674Z,13.14
2017-01-03T13:54:45.760Z,13.12
2017-01-03T13:55:54.849Z,13.17
2017-01-03T13:57:03.930Z,13.15
2017-01-03T13:58:12.628Z,13
2017-01-03T13:59:21.725Z,13.08
2017-01-03T14:00:31.220Z,13.03
2017-01-03T14:01:40.726Z,13.01
2017-01-03T14:02:49.495Z,13.12
2017-01-03T14:03:58.967Z,13.08
2017-01-03T14:05:08.051Z,13.12
2017-01-03T14:06:17.550Z,13.08
2017-01-03T14:07:27.188Z,13.15
2017-01-03T14:08:36.314Z,13.08
2017-01-03T14:09:45.813Z,13.11
2017-01-03T14:10:54.513Z,13.14
2017-01-03T14:12:03.622Z,13.05
2017-01-03T14:13:12.865Z,13.11
2017-01-03T14:14:21.986Z,13.05
2017-01-03T14:15:32.252Z,12.97
2017-01-03T14:16:41.739Z,13.01
2017-01-03T14:17:50.440Z,12.97
2017-01-03T14:18:59.670Z,12.9
2017-01-03T14:20:08.767Z,12.93
2017-01-03T14:21:17.465Z,12.89
2017-01-03T14:22:26.148Z,12.96
2017-01-03T14:23:35.211Z,12.97
2017-01-03T14:24:44.673Z,12.96
2017-01-03T14:25:54.531Z,13.03
2017-01-03T14:27:03.607Z,13
2017-01-03T14:28:12.682Z,13
2017-01-03T14:29:21.388Z,13.01
2017-01-03T14:30:30.813Z,13
2017-01-03T14:31:41.067Z,13.1
2017-01-03T14:32:50.541Z,13.08
2017-01-03T14:33:59.222Z,13.1
2017-01-03T14:35:08.698Z,13.08
2017-01-03T14:36:17.941Z,12.96
2017-01-03T14:37:27.014Z,12.95
2017-01-03T14:38:36.090Z,12.92
2017-01-03T14:39:46.737Z,12.86
2017-01-03T14:40:56.202Z,12.65
2017-01-03T14:42:05.051Z,12.68
2017-01-03T14:43:14.131Z,12.67
2017-01-03T14:44:23.202Z,12.64
2017-01-03T14:45:32.696Z,12.74
2017-01-03T14:46:41.785Z,12.72
2017-01-03T14:47:50.963Z,12.74
2017-01-03T14:49:00.039Z,12.78
2017-01-03T14:50:09.115Z,12.75
2017-01-03T14:51:17.811Z,12.77
2017-01-03T14:52:26.886Z,12.7
2017-01-03T14:53:35.587Z,12.72
2017-01-03T14:54:44.659Z,12.74
2017-01-03T14:55:53.387Z,12.71
2017-01-03T14:57:02.480Z,12.68
2017-01-03T14:58:12.335Z,12.71